Time;durP1;ratioP1;P1;durP2;ratioP2;P2;SDS_P1;SDS_P2;PMS_P1;PMS_P2;Temp;Humidity;BMP_temperature;BMP_pressure;BME280_temperature;BME280_humidity;BME280_pressure;Samples;Min_cycle;Max_cycle;Signal;HPM_P1;HPM_P2
2022/07/07 00:01:10;;;;;;;0.40;0.40;;;14.00;1.00;;;;;;5033110;28;20184;-75
2022/07/07 00:03:36;;;;;;;0.30;0.30;;;14.00;1.00;;;;;;5029246;28;20199;-75
2022/07/07 00:06:02;;;;;;;0.30;0.30;;;14.00;1.00;;;;;;5032562;28;20638;-75
2022/07/07 00:08:27;;;;;;;0.40;0.40;;;14.00;1.00;;;;;;5032936;28;20198;-75
2022/07/07 00:10:53;;;;;;;0.30;0.30;;;14.10;99.90;;;;;;5032514;28;20182;-75
2022/07/07 00:13:18;;;;;;;0.40;0.40;;;14.10;99.90;;;;;;5030713;28;20203;-75
2022/07/07 00:15:45;;;;;;;0.33;0.33;;;14.20;99.90;;;;;;5032115;28;20211;-76
2022/07/07 00:18:11;;;;;;;0.50;0.50;;;14.20;1.00;;;;;;5033413;28;20186;-75
2022/07/07 00:20:37;;;;;;;0.40;0.40;;;14.30;1.00;;;;;;5032597;28;20645;-74
2022/07/07 00:23:02;;;;;;;0.40;0.40;;;14.20;99.90;;;;;;5030323;28;20318;-75
2022/07/07 00:25:28;;;;;;;0.40;0.40;;;14.10;1.00;;;;;;5031734;28;20176;-75
2022/07/07 00:27:53;;;;;;;0.30;0.30;;;14.00;99.90;;;;;;5032587;28;20188;-75
2022/07/07 00:30:19;;;;;;;0.40;0.40;;;14.00;1.00;;;;;;5032015;28;20171;-75
2022/07/07 00:32:45;;;;;;;0.40;0.40;;;14.00;99.90;;;;;;5029344;28;20653;-75
2022/07/07 00:35:10;;;;;;;0.40;0.40;;;14.10;99.90;;;;;;5030996;28;20183;-75
2022/07/07 00:37:36;;;;;;;0.30;0.30;;;14.10;1.00;;;;;;5032234;28;20176;-75
2022/07/07 00:40:02;;;;;;;0.40;0.40;;;14.10;47.60;;;;;;5031847;28;20558;-75
2022/07/07 00:42:27;;;;;;;0.40;0.40;;;14.10;99.90;;;;;;5028955;28;20289;-76
2022/07/07 00:44:53;;;;;;;0.40;0.40;;;14.10;99.90;;;;;;5032318;28;20579;-75
2022/07/07 00:47:19;;;;;;;0.40;0.40;;;14.10;99.90;;;;;;5041716;28;20209;-75
2022/07/07 00:49:45;;;;;;;0.33;0.33;;;14.00;99.90;;;;;;5040736;28;20207;-75
2022/07/07 00:52:12;;;;;;;0.30;0.30;;;14.10;99.90;;;;;;5036127;28;20273;-74
2022/07/07 00:54:37;;;;;;;0.37;0.37;;;14.10;99.90;;;;;;5031667;28;20241;-76
2022/07/07 00:57:05;;;;;;;0.40;0.40;;;14.10;99.90;;;;;;5032285;28;20620;-76
2022/07/07 00:59:34;;;;;;;0.40;0.40;;;14.10;99.90;;;;;;5032137;28;20195;-75
2022/07/07 01:02:01;;;;;;;0.30;0.30;;;14.00;1.00;;;;;;5033500;28;20223;-76
2022/07/07 01:04:26;;;;;;;0.40;0.40;;;13.90;99.90;;;;;;5035117;28;20246;-76
2022/07/07 01:06:52;;;;;;;0.40;0.40;;;13.90;99.90;;;;;;5035354;28;20176;-75
2022/07/07 01:09:18;;;;;;;0.30;0.30;;;13.90;99.90;;;;;;5034705;28;20655;-76
2022/07/07 01:11:53;;;;;;;0.33;0.33;;;13.90;1.00;;;;;;5033735;28;20207;-76
2022/07/07 01:14:19;;;;;;;0.33;0.33;;;14.00;1.00;;;;;;5032537;28;20180;-76
2022/07/07 01:16:46;;;;;;;0.50;0.50;;;14.00;1.00;;;;;;5035677;28;20175;-75
2022/07/07 01:19:11;;;;;;;0.30;0.30;;;14.00;1.00;;;;;;5034930;28;20180;-74
2022/07/07 01:21:51;;;;;;;0.30;0.30;;;14.00;1.00;;;;;;5033531;28;20214;-75
2022/07/07 01:24:17;;;;;;;0.33;0.33;;;14.00;1.00;;;;;;5027905;28;20175;-75
2022/07/07 01:26:43;;;;;;;0.50;0.50;;;14.00;1.00;;;;;;5035216;28;20617;-74
2022/07/07 01:29:09;;;;;;;0.40;0.40;;;14.00;1.00;;;;;;5034987;28;20179;-75
2022/07/07 01:31:35;;;;;;;0.40;0.40;;;14.10;1.00;;;;;;5033621;28;20183;-75
2022/07/07 01:34:00;;;;;;;0.40;0.40;;;14.10;1.00;;;;;;5032864;28;20529;-76
2022/07/07 01:36:26;;;;;;;0.40;0.40;;;14.10;1.00;;;;;;5034953;28;20180;-76
2022/07/07 01:38:51;;;;;;;0.30;0.30;;;14.20;1.00;;;;;;5034459;28;20172;-74
2022/07/07 01:41:17;;;;;;;0.40;0.40;;;14.20;1.00;;;;;;5034920;28;20176;-75
2022/07/07 01:43:42;;;;;;;0.37;0.37;;;14.20;1.00;;;;;;5031291;28;20234;-75
2022/07/07 01:46:08;;;;;;;0.40;0.40;;;14.30;1.00;;;;;;5033933;28;20188;-75
2022/07/07 01:48:34;;;;;;;0.40;0.40;;;14.30;1.00;;;;;;5034623;28;20183;-75
2022/07/07 01:51:00;;;;;;;0.33;0.33;;;14.20;99.90;;;;;;5033976;28;20183;-74
2022/07/07 01:53:25;;;;;;;0.47;0.47;;;14.20;1.00;;;;;;5032207;28;20207;-75
2022/07/07 01:55:51;;;;;;;0.40;0.40;;;14.20;1.00;;;;;;5034008;28;20175;-75
2022/07/07 01:58:16;;;;;;;0.30;0.30;;;14.20;1.00;;;;;;5034594;28;20183;-75
2022/07/07 02:00:42;;;;;;;0.40;0.40;;;14.30;1.00;;;;;;5033878;28;20541;-75
2022/07/07 02:03:07;;;;;;;0.43;0.43;;;14.20;1.00;;;;;;5031333;28;20732;-76
2022/07/07 02:05:33;;;;;;;0.40;0.40;;;14.20;1.00;;;;;;5038860;28;20195;-76
2022/07/07 02:07:58;;;;;;;0.40;0.40;;;14.20;1.00;;;;;;5037587;28;20180;-76
2022/07/07 02:13:08;;;;;;;0.40;0.40;;;13.90;1.00;;;;;;5031465;28;20214;-76
2022/07/07 02:15:34;;;;;;;0.30;0.30;;;13.90;1.00;;;;;;5034216;28;20559;-77
2022/07/07 02:17:59;;;;;;;0.40;0.40;;;14.00;1.00;;;;;;5034978;28;20175;-76
2022/07/07 02:20:25;;;;;;;0.40;0.40;;;14.10;1.00;;;;;;5034683;28;20542;-77
2022/07/07 02:22:51;;;;;;;0.40;0.40;;;13.90;1.00;;;;;;5032876;28;20685;-75
2022/07/07 02:25:16;;;;;;;0.30;0.30;;;13.90;1.00;;;;;;5034250;28;20179;-76
2022/07/07 02:27:42;;;;;;;0.30;0.30;;;14.00;1.00;;;;;;5034743;28;20179;-76
2022/07/07 02:30:08;;;;;;;0.30;0.30;;;14.00;1.00;;;;;;5034074;28;20595;-76
2022/07/07 02:32:33;;;;;;;0.50;0.50;;;14.00;1.00;;;;;;5031822;28;20222;-76
2022/07/07 02:34:59;;;;;;;0.50;0.50;;;14.00;1.00;;;;;;5033893;28;20691;-75
2022/07/07 02:37:25;;;;;;;0.40;0.40;;;14.00;1.00;;;;;;5033880;28;20180;-76
2022/07/07 02:39:52;;;;;;;0.30;0.30;;;14.00;1.00;;;;;;5037216;28;20226;-75
2022/07/07 02:42:17;;;;;;;0.40;0.40;;;14.00;1.00;;;;;;5034209;28;20277;-76
2022/07/07 02:44:43;;;;;;;0.40;0.40;;;14.00;1.00;;;;;;5036129;28;20599;-76
2022/07/07 02:47:09;;;;;;;0.50;0.50;;;14.20;1.00;;;;;;5037001;28;20221;-76
2022/07/07 02:49:34;;;;;;;0.30;0.30;;;14.00;1.00;;;;;;5034224;28;20203;-76
2022/07/07 02:52:00;;;;;;;0.40;0.40;;;14.00;1.00;;;;;;5030952;28;20207;-76
2022/07/07 02:54:25;;;;;;;0.37;0.37;;;14.00;1.00;;;;;;5033625;28;20171;-76
2022/07/07 02:56:51;;;;;;;0.30;0.30;;;14.00;1.00;;;;;;5039187;28;20175;-76
2022/07/07 02:59:17;;;;;;;0.30;0.30;;;13.90;1.00;;;;;;5039359;28;20183;-75
2022/07/07 03:01:42;;;;;;;0.30;0.30;;;13.90;1.00;;;;;;5037005;28;20701;-74
2022/07/07 03:04:08;;;;;;;0.30;0.30;;;13.90;1.00;;;;;;5037751;28;20195;-74
2022/07/07 03:06:34;;;;;;;0.40;0.40;;;14.00;1.00;;;;;;5037330;28;20823;-76
2022/07/07 03:08:59;;;;;;;0.40;0.40;;;14.00;1.00;;;;;;5035767;28;20646;-75
2022/07/07 03:11:25;;;;;;;0.30;0.30;;;14.00;1.00;;;;;;5034827;28;20179;-75
2022/07/07 03:13:51;;;;;;;0.40;0.40;;;13.90;1.00;;;;;;5033091;28;20192;-76
2022/07/07 03:16:16;;;;;;;0.40;0.40;;;14.00;1.00;;;;;;5036347;28;20175;-76
2022/07/07 03:18:42;;;;;;;0.30;0.30;;;14.00;1.00;;;;;;5035558;28;20210;-75
2022/07/07 03:21:07;;;;;;;0.40;0.40;;;14.00;1.00;;;;;;5035086;28;20172;-76
2022/07/07 03:23:33;;;;;;;0.40;0.40;;;14.00;1.00;;;;;;5032875;28;20203;-76
2022/07/07 03:25:58;;;;;;;0.50;0.50;;;14.00;1.00;;;;;;5035484;28;20187;-76
2022/07/07 03:28:24;;;;;;;0.30;0.30;;;14.10;1.00;;;;;;5036700;28;20184;-76
2022/07/07 03:30:49;;;;;;;0.30;0.30;;;14.00;1.00;;;;;;5034610;28;20184;-76
2022/07/07 03:33:15;;;;;;;0.30;0.30;;;14.50;1.00;;;;;;5033553;28;20215;-76
2022/07/07 03:35:41;;;;;;;0.33;0.33;;;14.00;1.00;;;;;;5034322;28;20168;-76
2022/07/07 03:38:07;;;;;;;0.40;0.40;;;14.00;1.00;;;;;;5035884;28;20183;-76
2022/07/07 03:40:34;;;;;;;0.30;0.30;;;14.00;1.00;;;;;;5035030;28;20184;-76
2022/07/07 03:42:59;;;;;;;0.40;0.40;;;14.40;1.00;;;;;;5036650;28;20227;-77
2022/07/07 03:45:27;;;;;;;0.30;0.30;;;14.10;1.00;;;;;;5038958;28;20172;-78
2022/07/07 03:47:52;;;;;;;0.40;0.40;;;14.10;1.00;;;;;;5039983;28;20283;-78
2022/07/07 03:50:18;;;;;;;0.30;0.30;;;14.10;1.00;;;;;;5038610;28;20680;-78
2022/07/07 03:52:43;;;;;;;0.30;0.30;;;14.00;1.00;;;;;;5038132;28;20679;-79
2022/07/07 03:55:09;;;;;;;0.40;0.40;;;14.10;1.00;;;;;;5039186;28;20179;-77
2022/07/07 03:57:36;;;;;;;0.40;0.40;;;14.10;1.00;;;;;;5040100;28;20190;-81
2022/07/07 04:00:02;;;;;;;0.37;0.37;;;14.20;1.00;;;;;;5034540;28;20259;-80
2022/07/07 04:02:28;;;;;;;0.30;0.30;;;14.50;1.00;;;;;;5031714;28;20230;-79
2022/07/07 04:04:53;;;;;;;0.37;0.37;;;14.70;1.00;;;;;;5032114;28;20179;-79
2022/07/07 04:07:20;;;;;;;0.30;0.30;;;14.80;99.90;;;;;;5033166;28;20716;-79
2022/07/07 04:09:46;;;;;;;0.40;0.40;;;15.00;99.90;;;;;;5032750;28;20176;-81
2022/07/07 04:12:11;;;;;;;0.30;0.30;;;15.10;1.00;;;;;;5030246;28;20223;-77
2022/07/07 04:14:37;;;;;;;0.40;0.40;;;15.20;1.00;;;;;;5030587;28;20645;-78
2022/07/07 04:17:02;;;;;;;0.40;0.40;;;15.10;1.00;;;;;;5031838;28;20242;-77
2022/07/07 04:19:28;;;;;;;0.40;0.40;;;14.90;1.00;;;;;;5030659;28;20211;-78
2022/07/07 04:21:53;;;;;;;0.40;0.40;;;14.80;1.00;;;;;;5021675;28;20229;-78
2022/07/07 04:24:19;;;;;;;0.30;0.30;;;14.70;99.90;;;;;;5030743;28;20225;-79
2022/07/07 04:26:44;;;;;;;0.40;0.40;;;14.70;99.90;;;;;;5032149;28;20172;-78
2022/07/07 04:29:10;;;;;;;0.40;0.40;;;14.70;99.90;;;;;;5032692;28;20180;-78
2022/07/07 04:31:35;;;;;;;0.40;0.40;;;14.60;1.00;;;;;;5031127;28;20172;-79
2022/07/07 04:34:04;;;;;;;0.40;0.40;;;14.60;99.90;;;;;;5030211;28;20214;-79
2022/07/07 04:36:29;;;;;;;0.30;0.30;;;14.50;99.90;;;;;;5031630;28;20184;-79
2022/07/07 04:38:56;;;;;;;0.40;0.40;;;14.60;1.00;;;;;;5031023;28;20621;-79
2022/07/07 04:41:22;;;;;;;0.30;0.30;;;14.50;99.90;;;;;;5031281;28;20230;-83
2022/07/07 04:43:47;;;;;;;0.37;0.37;;;14.50;99.90;;;;;;5028132;28;20207;-79
2022/07/07 04:46:13;;;;;;;0.30;0.30;;;14.60;99.90;;;;;;5032583;28;20262;-80
2022/07/07 04:48:38;;;;;;;0.37;0.37;;;14.70;75.10;;;;;;5032185;28;20191;-79
2022/07/07 04:51:05;;;;;;;0.33;0.33;;;14.80;1.00;;;;;;5030698;28;20617;-79
2022/07/07 04:53:30;;;;;;;0.30;0.30;;;15.00;1.00;;;;;;5029729;28;20264;-80
2022/07/07 04:55:56;;;;;;;0.33;0.33;;;14.90;99.90;;;;;;5031423;28;20184;-79
2022/07/07 04:58:22;;;;;;;0.37;0.37;;;14.80;1.00;;;;;;5033624;28;20219;-78
2022/07/07 05:00:48;;;;;;;0.37;0.37;;;14.80;1.00;;;;;;5033302;28;20195;-77
2022/07/07 05:03:13;;;;;;;0.30;0.30;;;14.80;99.90;;;;;;5032384;28;20220;-77
2022/07/07 05:05:39;;;;;;;0.30;0.30;;;14.70;99.90;;;;;;5032036;28;20176;-77
2022/07/07 05:08:04;;;;;;;0.30;0.30;;;14.80;1.00;;;;;;5035542;28;20546;-76
2022/07/07 05:10:30;;;;;;;0.30;0.30;;;14.70;99.90;;;;;;5033805;28;20176;-77
2022/07/07 05:12:56;;;;;;;0.30;0.30;;;14.70;1.00;;;;;;5033631;28;20663;-77
2022/07/07 05:15:21;;;;;;;0.30;0.30;;;14.70;1.00;;;;;;5033434;28;20175;-78
2022/07/07 05:17:47;;;;;;;0.30;0.30;;;14.70;1.00;;;;;;5033423;28;20553;-77
2022/07/07 05:20:12;;;;;;;0.30;0.30;;;14.80;1.00;;;;;;5039349;28;20183;-76
2022/07/07 05:22:38;;;;;;;0.30;0.30;;;14.90;1.00;;;;;;5047974;28;20223;-77
2022/07/07 05:25:04;;;;;;;0.40;0.40;;;14.80;1.00;;;;;;5040336;28;20194;-77
2022/07/07 05:27:29;;;;;;;0.40;0.40;;;14.90;41.00;;;;;;5050023;28;20523;-74
2022/07/07 05:29:55;;;;;;;0.37;0.37;;;14.90;1.00;;;;;;5040132;28;20172;-77
2022/07/07 05:32:20;;;;;;;0.30;0.30;;;15.20;99.90;;;;;;5036356;28;20196;-75
2022/07/07 05:34:46;;;;;;;0.30;0.30;;;15.30;1.00;;;;;;5035454;28;20172;-77
2022/07/07 05:37:11;;;;;;;0.30;0.30;;;15.40;99.90;;;;;;5035041;28;20172;-77
2022/07/07 05:39:37;;;;;;;0.30;0.30;;;15.50;64.30;;;;;;5035242;28;20183;-76
2022/07/07 05:42:03;;;;;;;0.30;0.30;;;15.60;1.00;;;;;;5034865;28;20222;-78
2022/07/07 05:44:28;;;;;;;0.30;0.30;;;15.60;99.90;;;;;;5035099;28;20172;-78
2022/07/07 05:46:54;;;;;;;0.30;0.30;;;15.60;1.00;;;;;;5035420;28;20191;-77
2022/07/07 05:49:20;;;;;;;0.30;0.30;;;15.60;99.90;;;;;;5037770;28;20184;-78
2022/07/07 05:51:45;;;;;;;0.37;0.37;;;15.50;1.00;;;;;;5038362;28;20204;-78
2022/07/07 05:54:11;;;;;;;0.30;0.30;;;15.50;99.90;;;;;;5038569;28;20190;-77
2022/07/07 05:56:36;;;;;;;0.30;0.30;;;15.50;1.00;;;;;;5038308;28;20218;-77
2022/07/07 05:59:02;;;;;;;0.30;0.30;;;15.60;1.00;;;;;;5037684;28;20226;-78
2022/07/07 06:01:27;;;;;;;0.23;0.23;;;15.60;1.00;;;;;;5038373;28;20233;-78
2022/07/07 06:03:53;;;;;;;0.30;0.30;;;15.60;1.00;;;;;;5038478;28;20270;-77
2022/07/07 06:06:18;;;;;;;0.40;0.40;;;15.60;1.00;;;;;;5038945;28;20187;-77
2022/07/07 06:08:44;;;;;;;0.20;0.20;;;15.60;1.00;;;;;;5040041;28;20188;-77
2022/07/07 06:11:09;;;;;;;0.40;0.40;;;15.60;99.90;;;;;;5038553;28;20218;-77
2022/07/07 06:13:35;;;;;;;0.37;0.37;;;15.70;1.00;;;;;;5039128;28;20228;-78
2022/07/07 06:16:00;;;;;;;0.30;0.30;;;15.80;1.00;;;;;;5039389;28;20179;-78
2022/07/07 06:18:26;;;;;;;0.30;0.30;;;15.90;99.90;;;;;;5039144;28;20230;-78
2022/07/07 06:20:52;;;;;;;0.30;0.30;;;15.90;99.90;;;;;;5038326;28;20641;-77
2022/07/07 06:23:17;;;;;;;0.30;0.30;;;16.10;1.00;;;;;;5038611;28;20804;-78
2022/07/07 06:25:45;;;;;;;0.30;0.30;;;16.10;1.00;;;;;;5038343;28;20179;-78
2022/07/07 06:28:11;;;;;;;0.47;0.47;;;16.10;1.00;;;;;;5038030;28;20645;-77
2022/07/07 06:30:37;;;;;;;0.30;0.30;;;16.20;99.90;;;;;;5037466;28;20306;-77
2022/07/07 06:33:02;;;;;;;0.30;0.30;;;16.40;99.90;;;;;;5038253;28;20199;-77
2022/07/07 06:35:28;;;;;;;0.30;0.30;;;16.70;1.00;;;;;;5038420;28;20187;-77
2022/07/07 06:37:54;;;;;;;0.40;0.40;;;16.90;99.90;;;;;;5037054;28;20180;-77
2022/07/07 06:40:20;;;;;;;0.40;0.40;;;16.90;99.90;;;;;;5036108;28;20526;-78
2022/07/07 06:42:46;;;;;;;0.30;0.30;;;16.90;99.90;;;;;;5037958;28;20247;-78
2022/07/07 06:45:12;;;;;;;0.30;0.30;;;16.90;99.90;;;;;;5038061;28;20175;-77
2022/07/07 06:47:38;;;;;;;0.37;0.37;;;17.00;99.90;;;;;;5037937;28;20183;-77
2022/07/07 06:50:04;;;;;;;0.33;0.33;;;17.30;99.90;;;;;;5037632;28;20188;-79
2022/07/07 06:52:29;;;;;;;0.30;0.30;;;17.10;99.90;;;;;;5038382;28;20192;-77
2022/07/07 06:54:55;;;;;;;0.30;0.30;;;17.30;99.90;;;;;;5038451;28;20183;-76
2022/07/07 06:57:21;;;;;;;0.30;0.30;;;17.40;99.90;;;;;;5037164;28;20172;-78
2022/07/07 06:59:46;;;;;;;0.30;0.30;;;17.60;99.90;;;;;;5037594;28;20206;-78
2022/07/07 07:02:12;;;;;;;0.30;0.30;;;17.70;99.90;;;;;;5044300;28;20226;-75
2022/07/07 07:04:37;;;;;;;0.37;0.37;;;17.90;99.90;;;;;;5050117;28;20176;-76
2022/07/07 07:07:04;;;;;;;0.30;0.30;;;18.30;99.90;;;;;;5050207;28;20271;-76
2022/07/07 07:09:30;;;;;;;0.30;0.30;;;18.70;1.00;;;;;;5044502;28;20251;-78
2022/07/07 07:11:56;;;;;;;0.30;0.30;;;19.10;1.00;;;;;;5035632;28;20672;-78
2022/07/07 07:14:22;;;;;;;0.30;0.30;;;19.40;1.00;;;;;;5036296;28;20214;-77
2022/07/07 07:16:47;;;;;;;0.30;0.30;;;19.50;1.00;;;;;;5036294;28;20183;-78
2022/07/07 07:19:13;;;;;;;0.20;0.20;;;19.60;1.00;;;;;;5035223;28;20241;-77
2022/07/07 07:21:39;;;;;;;0.30;0.30;;;19.90;1.00;;;;;;5034643;28;20211;-77
2022/07/07 07:24:04;;;;;;;0.20;0.20;;;20.20;1.00;;;;;;5037514;28;20184;-77
2022/07/07 07:26:30;;;;;;;0.30;0.30;;;20.40;1.00;;;;;;5037112;28;20235;-75
2022/07/07 07:28:55;;;;;;;0.33;0.33;;;20.70;1.00;;;;;;5037275;28;20211;-77
2022/07/07 07:31:21;;;;;;;0.30;0.30;;;20.80;1.00;;;;;;5036544;28;20195;-78
2022/07/07 07:33:47;;;;;;;0.20;0.20;;;20.90;1.00;;;;;;5036258;28;20588;-76
2022/07/07 07:36:13;;;;;;;0.30;0.30;;;20.80;1.00;;;;;;5035053;28;20176;-77
2022/07/07 07:38:39;;;;;;;0.30;0.30;;;20.80;1.00;;;;;;5035608;28;20180;-75
2022/07/07 07:41:11;;;;;;;0.20;0.20;;;20.70;1.00;;;;;;5035074;28;20172;-76
2022/07/07 07:43:36;;;;;;;0.20;0.20;;;20.60;1.00;;;;;;5035089;28;20226;-76
2022/07/07 07:46:02;;;;;;;0.30;0.30;;;21.00;1.00;;;;;;5035181;28;20258;-76
2022/07/07 07:48:27;;;;;;;0.20;0.20;;;21.30;1.00;;;;;;5034513;28;20172;-76
2022/07/07 07:50:53;;;;;;;0.30;0.30;;;21.20;1.00;;;;;;5033437;28;20175;-76
2022/07/07 07:53:20;;;;;;;0.20;0.20;;;21.30;1.00;;;;;;5033412;28;20203;-77
2022/07/07 07:55:45;;;;;;;0.20;0.20;;;21.10;1.00;;;;;;5034495;28;20225;-77
2022/07/07 07:58:11;;;;;;;0.30;0.30;;;21.00;1.00;;;;;;5034301;28;20180;-76
2022/07/07 08:00:37;;;;;;;0.20;0.20;;;21.00;1.00;;;;;;5034864;28;20203;-76
2022/07/07 08:03:03;;;;;;;0.30;0.30;;;20.80;1.00;;;;;;5034601;28;20580;-77
2022/07/07 08:05:30;;;;;;;0.30;0.30;;;20.70;1.00;;;;;;5035200;28;20176;-76
2022/07/07 08:07:55;;;;;;;0.20;0.20;;;20.50;1.00;;;;;;5034876;28;20531;-76
2022/07/07 08:10:21;;;;;;;0.20;0.20;;;20.40;1.00;;;;;;5033450;28;20232;-75
2022/07/07 08:12:47;;;;;;;0.20;0.20;;;20.40;1.00;;;;;;5034387;28;20275;-76
2022/07/07 08:15:14;;;;;;;0.30;0.30;;;20.40;1.00;;;;;;5033884;28;20172;-76
2022/07/07 08:17:40;;;;;;;0.30;0.30;;;20.30;1.00;;;;;;5033760;28;20167;-76
2022/07/07 08:20:07;;;;;;;0.30;0.30;;;20.20;1.00;;;;;;5033422;28;20187;-75
2022/07/07 08:22:32;;;;;;;0.30;0.30;;;20.10;1.00;;;;;;5034221;28;20637;-77
2022/07/07 08:24:58;;;;;;;0.30;0.30;;;20.10;1.00;;;;;;5034312;28;20771;-76
2022/07/07 08:27:23;;;;;;;0.30;0.30;;;20.10;1.00;;;;;;5033800;28;20301;-76
2022/07/07 08:29:49;;;;;;;0.30;0.30;;;20.20;1.00;;;;;;5032892;28;20254;-77
2022/07/07 08:32:15;;;;;;;0.30;0.30;;;20.30;1.00;;;;;;5036922;28;20553;-75
2022/07/07 08:34:43;;;;;;;0.30;0.30;;;20.40;1.00;;;;;;5041385;28;20183;-74
2022/07/07 08:37:09;;;;;;;0.30;0.30;;;20.50;1.00;;;;;;5041411;28;20280;-75
2022/07/07 08:39:35;;;;;;;0.30;0.30;;;20.70;1.00;;;;;;5040238;28;20183;-74
2022/07/07 08:42:01;;;;;;;0.30;0.30;;;20.70;1.00;;;;;;5034149;28;20782;-77
2022/07/07 08:44:27;;;;;;;0.30;0.30;;;20.80;1.00;;;;;;5033398;28;20178;-77
2022/07/07 08:46:53;;;;;;;0.30;0.30;;;20.60;1.00;;;;;;5032973;28;20184;-77
2022/07/07 08:49:19;;;;;;;0.30;0.30;;;20.50;1.00;;;;;;5032562;28;20243;-78
2022/07/07 08:51:46;;;;;;;0.33;0.33;;;20.40;1.00;;;;;;5032495;28;20281;-77
2022/07/07 08:54:15;;;;;;;0.30;0.30;;;20.20;1.00;;;;;;5032773;28;20176;-77
2022/07/07 08:56:41;;;;;;;0.30;0.30;;;20.10;1.00;;;;;;5032597;28;20626;-77
2022/07/07 08:59:08;;;;;;;0.30;0.30;;;20.10;1.00;;;;;;5031872;28;20629;-77
2022/07/07 09:01:35;;;;;;;0.30;0.30;;;20.10;1.00;;;;;;5036466;28;20172;-76
2022/07/07 09:04:02;;;;;;;0.30;0.30;;;20.30;1.00;;;;;;5036289;28;20262;-76
2022/07/07 09:06:28;;;;;;;0.30;0.30;;;20.50;1.00;;;;;;5036126;28;20227;-75
2022/07/07 09:08:55;;;;;;;0.30;0.30;;;20.60;1.00;;;;;;5034250;28;20653;-74
2022/07/07 09:11:33;;;;;;;0.30;0.30;;;20.80;1.00;;;;;;5035058;28;20232;-77
2022/07/07 09:14:16;;;;;;;0.30;0.30;;;21.00;1.00;;;;;;5038455;28;20175;-76
2022/07/07 09:16:42;;;;;;;0.40;0.40;;;21.10;1.00;;;;;;5035285;28;20616;-77
2022/07/07 09:19:22;;;;;;;0.30;0.30;;;21.30;1.00;;;;;;5036152;28;20779;-75
2022/07/07 09:21:49;;;;;;;0.23;0.23;;;21.80;1.00;;;;;;5038264;28;20265;-76
2022/07/07 09:24:15;;;;;;;0.30;0.30;;;21.90;1.00;;;;;;5040949;28;20182;-77
2022/07/07 09:26:44;;;;;;;0.30;0.30;;;22.00;1.00;;;;;;5040808;28;20184;-77
2022/07/07 09:29:13;;;;;;;0.30;0.30;;;22.20;1.00;;;;;;5043555;28;20184;-77
2022/07/07 09:31:59;;;;;;;0.30;0.30;;;22.00;1.00;;;;;;5041281;28;20227;-77
2022/07/07 09:34:33;;;;;;;0.30;0.30;;;22.20;1.00;;;;;;5042650;28;20266;-77
2022/07/07 09:39:49;;;;;;;0.30;0.30;;;22.00;1.00;;;;;;5037768;28;20202;-76
2022/07/07 09:42:32;;;;;;;0.37;0.37;;;21.70;1.00;;;;;;5038464;28;20258;-76
2022/07/07 09:45:07;;;;;;;0.30;0.30;;;21.50;1.00;;;;;;5039538;28;20191;-76
2022/07/07 09:47:33;;;;;;;0.30;0.30;;;21.30;1.00;;;;;;5039932;28;20179;-75
2022/07/07 09:50:06;;;;;;;0.30;0.30;;;21.10;1.00;;;;;;5038003;28;20241;-75
2022/07/07 09:52:34;;;;;;;0.30;0.30;;;21.00;1.00;;;;;;5037931;28;20318;-76
2022/07/07 09:55:01;;;;;;;0.30;0.30;;;20.90;1.00;;;;;;5037004;28;20250;-74
2022/07/07 09:57:27;;;;;;;0.30;0.30;;;20.80;1.00;;;;;;5037168;28;20176;-74
2022/07/07 09:59:53;;;;;;;0.27;0.27;;;20.90;1.00;;;;;;5036801;28;20596;-74
2022/07/07 10:02:25;;;;;;;0.20;0.20;;;20.90;1.00;;;;;;5036300;28;20696;-75
2022/07/07 10:04:53;;;;;;;0.30;0.30;;;20.70;1.00;;;;;;5036376;28;20187;-74
2022/07/07 10:07:24;;;;;;;0.20;0.20;;;20.70;1.00;;;;;;5035992;28;20184;-74
2022/07/07 10:09:52;;;;;;;0.20;0.20;;;20.50;1.00;;;;;;5036163;28;20187;-75
2022/07/07 10:12:21;;;;;;;0.20;0.20;;;20.30;1.00;;;;;;5034935;28;20206;-75
2022/07/07 10:14:49;;;;;;;0.30;0.30;;;20.40;95.40;;;;;;5034531;28;20195;-74
2022/07/07 10:17:16;;;;;;;0.30;0.30;;;20.30;1.00;;;;;;5034288;28;20294;-75
2022/07/07 10:19:43;;;;;;;0.30;0.30;;;20.40;1.00;;;;;;5034080;28;20211;-73
2022/07/07 10:22:11;;;;;;;0.30;0.30;;;20.50;2.00;;;;;;5034432;28;20277;-74
2022/07/07 10:24:38;;;;;;;0.20;0.20;;;20.50;12.30;;;;;;5034241;28;20641;-73
2022/07/07 10:27:05;;;;;;;0.30;0.30;;;20.60;1.00;;;;;;5034782;28;20184;-74
2022/07/07 10:29:51;;;;;;;0.30;0.30;;;20.70;1.00;;;;;;5034917;28;20174;-74
2022/07/07 10:32:23;;;;;;;0.30;0.30;;;20.80;1.00;;;;;;5035119;28;20250;-74
2022/07/07 10:34:52;;;;;;;0.30;0.30;;;20.90;1.00;;;;;;5034860;28;20547;-75
2022/07/07 10:37:20;;;;;;;0.30;0.30;;;21.00;1.00;;;;;;5036831;28;20530;-76
2022/07/07 10:39:50;;;;;;;0.30;0.30;;;21.00;1.00;;;;;;5036096;28;20618;-77
2022/07/07 10:42:16;;;;;;;0.30;0.30;;;21.20;1.00;;;;;;5034653;28;20351;-74
2022/07/07 10:44:43;;;;;;;0.30;0.30;;;21.40;1.00;;;;;;5036779;28;20168;-74
2022/07/07 10:47:11;;;;;;;0.30;0.30;;;21.40;1.00;;;;;;5035609;28;20176;-75
2022/07/07 10:49:42;;;;;;;0.30;0.30;;;21.60;1.00;;;;;;5033761;28;20179;-74
2022/07/07 10:52:16;;;;;;;0.20;0.20;;;21.80;1.00;;;;;;5033713;28;20196;-74
2022/07/07 10:54:47;;;;;;;0.30;0.30;;;21.90;1.00;;;;;;5034289;28;20183;-75
2022/07/07 10:57:21;;;;;;;0.30;0.30;;;21.90;1.00;;;;;;5035362;28;20179;-74
2022/07/07 11:00:00;;;;;;;0.20;0.20;;;21.70;1.00;;;;;;5034764;28;20266;-75
2022/07/07 11:02:48;;;;;;;0.30;0.30;;;21.60;1.00;;;;;;5033927;28;20215;-74
2022/07/07 11:05:14;;;;;;;0.20;0.20;;;21.50;1.00;;;;;;5039400;28;20671;-77
2022/07/07 11:07:41;;;;;;;0.30;0.30;;;21.50;1.00;;;;;;5038285;28;20196;-77
2022/07/07 11:10:10;;;;;;;0.20;0.20;;;21.40;1.00;;;;;;5035268;28;20237;-75
2022/07/07 11:12:53;;;;;;;0.20;0.20;;;21.30;1.00;;;;;;5036226;28;20203;-75
2022/07/07 11:15:21;;;;;;;0.20;0.20;;;21.30;1.00;;;;;;5035320;28;20199;-75
2022/07/07 11:17:55;;;;;;;0.30;0.30;;;21.30;1.00;;;;;;5034630;28;20534;-75
2022/07/07 11:20:26;;;;;;;0.40;0.40;;;21.10;1.00;;;;;;5035106;28;20180;-75
2022/07/07 11:23:13;;;;;;;0.30;0.30;;;21.10;1.00;;;;;;5035918;28;20215;-75
2022/07/07 11:25:40;;;;;;;0.20;0.20;;;20.90;1.00;;;;;;5034220;28;20195;-75
2022/07/07 11:28:08;;;;;;;0.30;0.30;;;20.80;1.00;;;;;;5035087;28;20179;-75
2022/07/07 11:30:34;;;;;;;0.30;0.30;;;20.80;1.00;;;;;;5034652;28;20176;-75
2022/07/07 11:33:00;;;;;;;0.30;0.30;;;20.70;1.00;;;;;;5036107;28;20245;-75
2022/07/07 11:35:37;;;;;;;0.30;0.30;;;20.80;1.00;;;;;;5035270;28;20178;-76
2022/07/07 11:38:11;;;;;;;0.27;0.27;;;20.80;1.00;;;;;;5024409;28;20190;-74
2022/07/07 11:40:42;;;;;;;0.30;0.30;;;20.80;1.00;;;;;;5040084;28;20234;-76
2022/07/07 11:43:23;;;;;;;0.30;0.30;;;20.80;1.00;;;;;;5037039;28;20220;-74
2022/07/07 11:45:49;;;;;;;0.30;0.30;;;20.90;1.00;;;;;;5039646;28;20247;-75
2022/07/07 11:48:15;;;;;;;0.30;0.30;;;21.00;1.00;;;;;;5040349;28;20671;-75
2022/07/07 11:50:40;;;;;;;0.30;0.30;;;21.10;1.00;;;;;;5038110;28;20168;-75
2022/07/07 11:53:06;;;;;;;0.30;0.30;;;21.30;1.00;;;;;;5038248;28;20192;-74
2022/07/07 11:55:32;;;;;;;0.30;0.30;;;21.50;1.00;;;;;;5032406;28;20774;-75
2022/07/07 11:57:59;;;;;;;0.30;0.30;;;21.60;1.00;;;;;;5032417;28;20263;-75
2022/07/07 12:00:30;;;;;;;0.30;0.30;;;21.70;1.00;;;;;;5031618;28;20180;-75
2022/07/07 12:02:57;;;;;;;0.20;0.20;;;21.70;1.00;;;;;;5029612;28;20200;-75
2022/07/07 12:05:30;;;;;;;0.30;0.30;;;21.50;1.00;;;;;;5031809;28;20536;-74
2022/07/07 12:07:58;;;;;;;0.30;0.30;;;21.30;1.00;;;;;;5030446;28;20175;-76
2022/07/07 12:10:28;;;;;;;0.30;0.30;;;21.20;41.10;;;;;;5032555;28;20168;-74
2022/07/07 12:12:58;;;;;;;0.30;0.30;;;21.10;50.90;;;;;;5030161;28;20195;-75
2022/07/07 12:15:29;;;;;;;0.20;0.20;;;21.10;1.00;;;;;;5032158;28;20564;-75
2022/07/07 12:17:55;;;;;;;0.20;0.20;;;21.10;1.00;;;;;;5028959;28;20172;-74
2022/07/07 12:20:21;;;;;;;0.30;0.30;;;21.20;1.00;;;;;;5032792;28;20167;-76
2022/07/07 12:22:58;;;;;;;0.30;0.30;;;21.20;1.00;;;;;;5032709;28;20630;-74
2022/07/07 12:25:25;;;;;;;0.23;0.23;;;21.10;1.00;;;;;;5032779;28;20179;-76
2022/07/07 12:28:11;;;;;;;0.30;0.30;;;21.00;1.00;;;;;;5032457;28;20191;-75
2022/07/07 12:30:53;;;;;;;0.30;0.30;;;20.70;1.00;;;;;;5034316;28;20180;-75
2022/07/07 12:33:32;;;;;;;0.20;0.20;;;20.80;1.00;;;;;;5036088;28;20203;-77
2022/07/07 12:36:17;;;;;;;0.30;0.30;;;21.00;1.00;;;;;;5044462;28;20179;-76
2022/07/07 12:38:54;;;;;;;0.30;0.30;;;21.00;1.00;;;;;;5054220;28;20255;-77
2022/07/07 12:41:40;;;;;;;0.30;0.30;;;21.10;1.00;;;;;;5054767;28;20175;-77
2022/07/07 12:44:22;;;;;;;0.30;0.30;;;21.10;1.00;;;;;;5053875;28;20225;-77
2022/07/07 12:46:48;;;;;;;0.33;0.33;;;21.20;1.00;;;;;;5054980;28;20182;-77
2022/07/07 12:49:14;;;;;;;0.30;0.30;;;21.30;1.00;;;;;;5055301;28;20203;-76
2022/07/07 12:51:42;;;;;;;0.30;0.30;;;21.30;1.00;;;;;;5057588;28;20206;-77
2022/07/07 12:54:24;;;;;;;0.37;0.37;;;21.40;1.00;;;;;;5055702;28;20248;-76
2022/07/07 12:57:07;;;;;;;0.30;0.30;;;21.50;1.00;;;;;;5053934;28;20254;-77
2022/07/07 12:59:38;;;;;;;0.23;0.23;;;21.50;1.00;;;;;;5054374;28;20179;-78
2022/07/07 13:02:05;;;;;;;0.30;0.30;;;21.50;1.00;;;;;;5054892;28;20777;-76